Time;durP1;ratioP1;P1;durP2;ratioP2;P2;SDS_P1;SDS_P2;PMS_P1;PMS_P2;Temp;Humidity;BMP_temperature;BMP_pressure;BME280_temperature;BME280_humidity;BME280_pressure;Samples;Min_cycle;Max_cycle;Signal;HPM_P1;HPM_P2
2021/01/30 00:00:53;;;;;;;12.65;5.53;;;;;;;-145.48;100.00;59605.97;6245255;23;20023;-79
2021/01/30 00:03:18;;;;;;;11.82;6.07;;;;;;;-145.48;100.00;59605.97;6244326;23;20058;-79
2021/01/30 00:05:44;;;;;;;13.07;5.47;;;;;;;-145.48;100.00;59605.97;6242469;23;20004;-79
2021/01/30 00:08:11;;;;;;;11.32;4.88;;;;;;;-145.48;100.00;59605.97;6216966;23;20058;-79
2021/01/30 00:10:37;;;;;;;19.60;5.50;;;;;;;-145.48;100.00;59605.97;6243931;23;20026;-79
2021/01/30 00:13:06;;;;;;;18.02;5.53;;;;;;;-145.48;100.00;59605.97;6244862;23;20007;-79
2021/01/30 00:15:32;;;;;;;14.02;5.13;;;;;;;-145.48;100.00;59605.97;6247708;23;20083;-80
2021/01/30 00:17:58;;;;;;;12.80;5.30;;;;;;;-145.48;100.00;59605.97;6253640;23;20061;-80
2021/01/30 00:20:26;;;;;;;8.70;4.50;;;;;;;-145.48;100.00;59605.97;6250787;23;20034;-79
2021/01/30 00:22:53;;;;;;;17.75;5.80;;;;;;;-145.48;100.00;59605.97;6246291;23;20024;-79
2021/01/30 00:25:21;;;;;;;11.07;5.10;;;;;;;-145.48;100.00;59605.97;6218390;23;20004;-80
2021/01/30 00:27:46;;;;;;;12.65;5.40;;;;;;;-145.48;100.00;59605.97;6225026;23;20095;-79
2021/01/30 00:30:14;;;;;;;8.90;4.75;;;;;;;-145.48;100.00;59605.97;6254526;23;20000;-80
2021/01/30 00:32:39;;;;;;;12.90;5.10;;;;;;;-145.48;100.00;59605.97;6251674;23;20349;-80
2021/01/30 00:35:05;;;;;;;13.93;4.35;;;;;;;-145.48;100.00;59605.97;6250467;23;20007;-79
2021/01/30 00:37:31;;;;;;;14.15;3.80;;;;;;;-145.48;100.00;59605.97;6252004;23;19984;-79
2021/01/30 00:39:56;;;;;;;11.30;4.10;;;;;;;-145.48;100.00;59605.97;6256193;23;20004;-79
2021/01/30 00:42:24;;;;;;;6.85;4.63;;;;;;;-145.48;100.00;59605.97;6255688;23;20281;-79
2021/01/30 00:44:51;;;;;;;13.70;4.28;;;;;;;-145.48;100.00;59605.97;6250197;23;20062;-79
2021/01/30 00:47:17;;;;;;;9.82;4.80;;;;;;;-145.48;100.00;59605.97;6219290;23;20021;-79
2021/01/30 00:49:43;;;;;;;13.65;5.20;;;;;;;-145.48;100.00;59605.97;6221353;23;20008;-79
2021/01/30 00:52:10;;;;;;;16.85;4.65;;;;;;;-145.48;100.00;59605.97;6222405;23;20739;-79
2021/01/30 00:54:35;;;;;;;9.85;5.30;;;;;;;-145.48;100.00;59605.97;6216278;23;20438;-79
2021/01/30 00:57:01;;;;;;;9.07;4.90;;;;;;;-145.48;100.00;59605.97;6218438;23;20000;-79
2021/01/30 00:59:26;;;;;;;12.10;4.55;;;;;;;-145.48;100.00;59605.97;6219162;23;20012;-79
2021/01/30 01:01:52;;;;;;;10.68;4.35;;;;;;;-145.48;100.00;59605.97;6216100;23;20004;-79
2021/01/30 01:04:21;;;;;;;10.27;3.90;;;;;;;-145.48;100.00;59605.97;6216968;23;20000;-80
2021/01/30 01:06:49;;;;;;;12.70;4.40;;;;;;;-145.48;100.00;59605.97;6216363;23;20083;-79
2021/01/30 01:09:16;;;;;;;6.43;3.60;;;;;;;-145.48;100.00;59605.97;6217753;23;20335;-79
2021/01/30 01:11:44;;;;;;;6.30;3.50;;;;;;;-145.48;100.00;59605.97;6216571;23;20058;-80
2021/01/30 01:14:10;;;;;;;8.55;3.35;;;;;;;-145.48;100.00;59605.97;6217141;23;20363;-79
2021/01/30 01:16:36;;;;;;;12.25;5.28;;;;;;;-145.48;100.00;59605.97;6217570;23;20003;-80
2021/01/30 01:19:02;;;;;;;11.80;4.45;;;;;;;-145.48;100.00;59605.97;6218879;23;20035;-79
2021/01/30 01:21:27;;;;;;;10.65;4.05;;;;;;;-145.48;100.00;59605.97;6219036;23;20419;-79
2021/01/30 01:23:52;;;;;;;10.25;4.68;;;;;;;-145.48;100.00;59605.97;6216480;23;20000;-79
2021/01/30 01:26:19;;;;;;;9.15;4.15;;;;;;;-145.48;100.00;59605.97;6218442;23;20009;-80
2021/01/30 01:28:45;;;;;;;14.65;4.20;;;;;;;-145.48;100.00;59605.97;6216714;23;20008;-80
2021/01/30 01:31:12;;;;;;;8.88;4.05;;;;;;;-145.48;100.00;59605.97;6215796;23;20058;-80
2021/01/30 01:33:38;;;;;;;13.38;3.72;;;;;;;-145.48;100.00;59605.97;6215380;23;20042;-80
2021/01/30 01:36:04;;;;;;;6.47;4.03;;;;;;;-145.48;100.00;59605.97;6219076;23;20005;-80
2021/01/30 01:38:30;;;;;;;10.38;3.33;;;;;;;-145.48;100.00;59605.97;6218140;23;20016;-80
2021/01/30 01:40:55;;;;;;;7.30;4.22;;;;;;;-145.48;100.00;59605.97;6218962;23;20079;-80
2021/01/30 01:43:23;;;;;;;8.13;3.75;;;;;;;-145.48;100.00;59605.97;6215626;23;20389;-79
2021/01/30 01:46:12;;;;;;;4.55;3.00;;;;;;;-145.48;100.00;59605.97;6215078;23;20005;-80
2021/01/30 01:48:41;;;;;;;5.88;2.75;;;;;;;-145.48;100.00;59605.97;6216173;23;20019;-80
2021/01/30 01:51:12;;;;;;;10.30;3.20;;;;;;;-145.48;100.00;59605.97;6217921;23;20054;-80
2021/01/30 01:53:41;;;;;;;7.60;3.53;;;;;;;-145.48;100.00;59605.97;6217145;23;20008;-80
2021/01/30 01:56:13;;;;;;;9.38;3.22;;;;;;;-145.48;100.00;59605.97;6218050;23;20419;-80
2021/01/30 01:58:43;;;;;;;11.30;3.25;;;;;;;-145.48;100.00;59605.97;6215718;23;20017;-79
2021/01/30 02:01:08;;;;;;;6.80;3.78;;;;;;;-145.48;100.00;59605.97;6215882;23;20004;-80
2021/01/30 02:03:34;;;;;;;8.30;3.25;;;;;;;-145.48;100.00;59605.97;6217641;23;20000;-80
2021/01/30 02:06:04;;;;;;;7.03;2.90;;;;;;;-145.48;100.00;59605.97;6221251;23;20008;-80
2021/01/30 02:08:30;;;;;;;9.52;3.55;;;;;;;-145.48;100.00;59605.97;6223986;23;20005;-79
2021/01/30 02:10:57;;;;;;;7.80;3.28;;;;;;;-145.48;100.00;59605.97;6222506;23;20032;-79
2021/01/30 02:13:27;;;;;;;7.72;3.45;;;;;;;-145.48;100.00;59605.97;6220494;23;20020;-79
2021/01/30 02:15:59;;;;;;;10.15;3.63;;;;;;;-145.48;100.00;59605.97;6218767;23;19997;-79
2021/01/30 02:18:44;;;;;;;5.25;2.97;;;;;;;-145.48;100.00;59605.97;6221086;23;20000;-79
2021/01/30 02:21:40;;;;;;;5.10;3.40;;;;;;;-145.48;100.00;59605.97;6224214;23;20032;-79
2021/01/30 02:24:27;;;;;;;9.60;3.87;;;;;;;-145.48;100.00;59605.97;6217431;23;19997;-79
2021/01/30 02:27:08;;;;;;;8.15;4.40;;;;;;;-145.48;100.00;59605.97;6222510;23;20076;-79
2021/01/30 02:29:53;;;;;;;7.75;4.82;;;;;;;-145.48;100.00;59605.97;6221587;23;20038;-79
2021/01/30 02:32:35;;;;;;;5.95;4.43;;;;;;;-145.48;100.00;59605.97;6221643;23;20008;-79
2021/01/30 02:35:21;;;;;;;8.55;5.20;;;;;;;-145.48;100.00;59605.97;6222632;23;19997;-80
2021/01/30 02:37:56;;;;;;;8.88;5.38;;;;;;;-145.48;100.00;59605.97;6220229;23;20371;-80
2021/01/30 02:40:24;;;;;;;6.53;4.78;;;;;;;-145.48;100.00;59605.97;6220372;23;20747;-80
2021/01/30 02:43:02;;;;;;;7.72;5.65;;;;;;;-145.48;100.00;59605.97;6221765;23;20026;-80
2021/01/30 02:45:30;;;;;;;5.85;5.25;;;;;;;-145.48;100.00;59605.97;6220112;23;20009;-80
2021/01/30 02:48:07;;;;;;;8.88;5.53;;;;;;;-145.48;100.00;59605.97;6221230;23;20020;-80
2021/01/30 02:50:45;;;;;;;5.68;4.72;;;;;;;-145.48;100.00;59605.97;6222157;23;20004;-79
2021/01/30 02:53:15;;;;;;;6.90;5.50;;;;;;;-145.48;100.00;59605.97;6219284;23;20064;-79
2021/01/30 02:55:42;;;;;;;7.65;5.45;;;;;;;-145.48;100.00;59605.97;6214185;23;20485;-79
2021/01/30 02:58:10;;;;;;;6.93;5.78;;;;;;;-145.48;100.00;59605.97;6215901;23;20577;-79
2021/01/30 03:00:36;;;;;;;6.95;5.30;;;;;;;-145.48;100.00;59605.97;6215929;23;20064;-79
2021/01/30 03:03:03;;;;;;;6.25;5.32;;;;;;;-145.48;100.00;59605.97;6216265;23;20035;-79
2021/01/30 03:05:28;;;;;;;7.45;6.03;;;;;;;-145.48;100.00;59605.97;6213128;23;20009;-79
2021/01/30 03:07:57;;;;;;;8.15;6.53;;;;;;;-145.48;100.00;59605.97;6220964;23;20032;-79
2021/01/30 03:10:30;;;;;;;7.30;6.38;;;;;;;-145.48;100.00;59605.97;6215117;23;20028;-79
2021/01/30 03:13:14;;;;;;;9.50;7.07;;;;;;;-145.48;100.00;59605.97;6213080;23;20015;-79
2021/01/30 03:15:56;;;;;;;11.27;8.55;;;;;;;-145.48;100.00;59605.97;6216177;23;20438;-79
2021/01/30 03:18:27;;;;;;;8.38;7.05;;;;;;;-145.48;100.00;59605.97;6219653;23;20009;-79
2021/01/30 03:20:53;;;;;;;9.50;7.97;;;;;;;-145.48;100.00;59605.97;6217104;23;20012;-80
2021/01/30 03:23:19;;;;;;;9.38;7.72;;;;;;;-145.48;100.00;59605.97;6216211;23;20725;-80
2021/01/30 03:25:46;;;;;;;10.30;8.10;;;;;;;-145.48;100.00;59605.97;6216180;23;20015;-79
2021/01/30 03:28:12;;;;;;;11.10;8.55;;;;;;;-145.48;100.00;59605.97;6215062;23;20074;-79
2021/01/30 03:30:38;;;;;;;8.35;6.95;;;;;;;-145.48;100.00;59605.97;6213200;23;21107;-79
2021/01/30 03:33:05;;;;;;;9.75;7.57;;;;;;;-145.48;100.00;59605.97;6214576;23;20015;-79
2021/01/30 03:35:31;;;;;;;9.38;6.82;;;;;;;-145.48;100.00;59605.97;6213499;23;20017;-79
2021/01/30 03:37:56;;;;;;;9.63;6.93;;;;;;;-145.48;100.00;59605.97;6214332;23;20009;-79
2021/01/30 03:40:22;;;;;;;10.48;8.13;;;;;;;-145.48;100.00;59605.97;6213128;23;20005;-79
2021/01/30 03:42:48;;;;;;;10.95;7.38;;;;;;;-145.48;100.00;59605.97;6212712;23;20307;-78
2021/01/30 03:45:16;;;;;;;10.05;8.18;;;;;;;-145.48;100.00;59605.97;6214082;23;20001;-80
2021/01/30 03:47:41;;;;;;;12.77;8.55;;;;;;;-145.48;100.00;59605.97;6233817;23;20450;-79
2021/01/30 03:50:08;;;;;;;13.68;8.18;;;;;;;-145.48;100.00;59605.97;6220296;23;20166;-79
2021/01/30 03:52:34;;;;;;;12.95;8.32;;;;;;;-145.48;100.00;59605.97;6247049;23;20008;-78
2021/01/30 03:54:59;;;;;;;8.85;7.85;;;;;;;-145.48;100.00;59605.97;6248800;23;20082;-80
2021/01/30 03:57:25;;;;;;;11.15;8.80;;;;;;;-145.48;100.00;59605.97;6247690;23;20022;-79
2021/01/30 03:59:50;;;;;;;12.38;9.48;;;;;;;-145.48;100.00;59605.97;6247398;23;20004;-80
2021/01/30 04:02:18;;;;;;;11.30;9.02;;;;;;;-145.48;100.00;59605.97;6247064;23;20000;-80
2021/01/30 04:04:44;;;;;;;10.75;8.82;;;;;;;-145.48;100.00;59605.97;6245881;23;20085;-79
2021/01/30 04:07:10;;;;;;;13.98;9.55;;;;;;;-145.48;100.00;59605.97;6222815;23;20035;-79
2021/01/30 04:09:36;;;;;;;11.68;9.73;;;;;;;-145.48;100.00;59605.97;6224107;23;20000;-79
2021/01/30 04:12:03;;;;;;;11.57;9.40;;;;;;;-145.48;100.00;59605.97;6247095;23;20019;-78
2021/01/30 04:14:28;;;;;;;13.07;9.25;;;;;;;-145.48;100.00;59605.97;6243796;23;20067;-78
2021/01/30 04:16:53;;;;;;;17.88;9.60;;;;;;;-145.48;100.00;59605.97;6217003;23;20756;-79
2021/01/30 04:19:18;;;;;;;15.48;11.38;;;;;;;-145.48;100.00;59605.97;6250586;23;20674;-79
2021/01/30 04:21:44;;;;;;;11.68;10.18;;;;;;;-145.48;100.00;59605.97;6246080;23;20000;-79
2021/01/30 04:24:09;;;;;;;13.32;10.82;;;;;;;-145.48;100.00;59605.97;6217882;23;20008;-78
2021/01/30 04:26:35;;;;;;;12.68;9.45;;;;;;;-145.48;100.00;59605.97;6243703;23;20445;-79
2021/01/30 04:29:00;;;;;;;12.82;10.40;;;;;;;-145.48;100.00;59605.97;6246583;23;20004;-79
2021/01/30 04:31:26;;;;;;;14.32;11.18;;;;;;;-145.48;100.00;59605.97;6243926;23;20008;-79
2021/01/30 04:33:51;;;;;;;12.63;10.93;;;;;;;-145.48;100.00;59605.97;6216916;23;20023;-79
2021/01/30 04:36:21;;;;;;;15.52;11.70;;;;;;;-145.48;100.00;59605.97;6217464;23;20361;-78
2021/01/30 04:38:46;;;;;;;14.57;12.05;;;;;;;-145.48;100.00;59605.97;6242164;23;20015;-79
2021/01/30 04:41:20;;;;;;;13.80;10.95;;;;;;;-145.48;100.00;59605.97;6241184;23;20420;-79
2021/01/30 04:43:59;;;;;;;13.90;11.68;;;;;;;-145.48;100.00;59605.97;6241840;23;20007;-79
2021/01/30 04:46:50;;;;;;;15.27;12.10;;;;;;;-145.48;100.00;59605.97;6216750;22;20361;-79
2021/01/30 04:49:43;;;;;;;13.73;10.98;;;;;;;-145.48;100.00;59605.97;6243967;23;20077;-78
2021/01/30 04:52:45;;;;;;;14.40;11.10;;;;;;;-145.48;100.00;59605.97;6242658;23;20424;-78
2021/01/30 04:55:40;;;;;;;13.48;10.30;;;;;;;-145.48;100.00;59605.97;6242768;23;20095;-78
2021/01/30 04:58:24;;;;;;;13.02;9.10;;;;;;;-145.48;100.00;59605.97;6245488;23;20003;-79
2021/01/30 05:01:21;;;;;;;11.88;9.10;;;;;;;-145.48;100.00;59605.97;6244184;23;20004;-79
2021/01/30 05:04:05;;;;;;;13.35;10.52;;;;;;;-145.48;100.00;59605.97;6243066;23;20425;-79
2021/01/30 05:06:56;;;;;;;11.43;9.55;;;;;;;-145.48;100.00;59605.97;6245486;23;20004;-78
2021/01/30 05:09:31;;;;;;;12.65;8.98;;;;;;;-145.48;100.00;59605.97;6242895;23;20505;-79
2021/01/30 05:12:05;;;;;;;12.57;10.07;;;;;;;-145.48;100.00;59605.97;6243029;23;20149;-79
2021/01/30 05:14:37;;;;;;;12.25;9.98;;;;;;;-145.48;100.00;59605.97;6245629;23;20031;-80
2021/01/30 05:17:20;;;;;;;11.45;9.48;;;;;;;-145.48;100.00;59605.97;6248013;23;20004;-79
2021/01/30 05:19:52;;;;;;;14.07;9.52;;;;;;;-145.48;100.00;59605.97;6251161;23;20035;-78
2021/01/30 05:22:17;;;;;;;12.93;9.32;;;;;;;-145.48;100.00;59605.97;6251232;23;20011;-79
2021/01/30 05:24:44;;;;;;;11.40;8.70;;;;;;;-145.48;100.00;59605.97;6219659;23;20329;-78
2021/01/30 05:27:37;;;;;;;11.55;8.63;;;;;;;-145.48;100.00;59605.97;6243114;23;20024;-78
2021/01/30 05:30:12;;;;;;;10.75;7.30;;;;;;;-145.48;100.00;59605.97;6217618;23;20486;-78
2021/01/30 05:33:02;;;;;;;9.40;8.15;;;;;;;-145.48;100.00;59605.97;6244891;23;20004;-78
2021/01/30 05:35:48;;;;;;;8.98;7.63;;;;;;;-145.48;100.00;59605.97;6244837;23;20016;-79
2021/01/30 05:38:46;;;;;;;10.98;7.80;;;;;;;-145.48;100.00;59605.97;6244489;23;20010;-79
2021/01/30 05:41:24;;;;;;;9.23;7.22;;;;;;;-145.48;100.00;59605.97;6154133;23;20001;-79
2021/01/30 05:44:00;;;;;;;9.80;7.50;;;;;;;-145.48;100.00;59605.97;6242467;23;20430;-79
2021/01/30 05:46:29;;;;;;;9.70;8.02;;;;;;;-145.48;100.00;59605.97;6244984;22;20004;-79
2021/01/30 05:48:57;;;;;;;10.10;7.53;;;;;;;-145.48;100.00;59605.97;6218723;23;20038;-79
2021/01/30 05:51:36;;;;;;;9.68;6.80;;;;;;;-145.48;100.00;59605.97;6244264;23;20604;-79
2021/01/30 05:54:01;;;;;;;9.15;7.43;;;;;;;-145.48;100.00;59605.97;6244938;23;20038;-79
2021/01/30 05:56:37;;;;;;;10.63;7.45;;;;;;;-145.48;100.00;59605.97;6249800;23;20000;-79
2021/01/30 05:59:03;;;;;;;9.00;7.28;;;;;;;-145.48;100.00;59605.97;6253858;23;20491;-80
2021/01/30 06:01:29;;;;;;;8.95;6.97;;;;;;;-145.48;100.00;59605.97;6248281;23;20067;-79
2021/01/30 06:03:59;;;;;;;8.98;7.20;;;;;;;-145.48;100.00;59605.97;6246819;23;20434;-79
2021/01/30 06:06:27;;;;;;;7.55;6.50;;;;;;;-145.48;100.00;59605.97;6249578;23;20024;-80
2021/01/30 06:08:55;;;;;;;8.68;6.72;;;;;;;-145.48;100.00;59605.97;6247464;23;20008;-80
2021/01/30 06:11:20;;;;;;;8.15;6.53;;;;;;;-145.48;100.00;59605.97;6245993;23;20008;-79
2021/01/30 06:14:01;;;;;;;9.77;7.10;;;;;;;-145.48;100.00;59605.97;6243794;23;20026;-79
2021/01/30 06:16:45;;;;;;;7.50;6.10;;;;;;;-145.48;100.00;59605.97;6248190;23;20231;-79
2021/01/30 06:19:20;;;;;;;8.48;6.53;;;;;;;-145.48;100.00;59605.97;6247542;23;20018;-79
2021/01/30 06:21:48;;;;;;;8.45;6.43;;;;;;;-145.48;100.00;59605.97;6219089;23;20691;-79
2021/01/30 06:24:30;;;;;;;8.10;6.80;;;;;;;-145.48;100.00;59605.97;6243251;23;20004;-79
2021/01/30 06:27:01;;;;;;;8.27;5.60;;;;;;;-145.48;100.00;59605.97;6245258;23;20004;-79
2021/01/30 06:29:30;;;;;;;8.02;5.72;;;;;;;-145.48;100.00;59605.97;6244168;23;20322;-79
2021/01/30 06:32:06;;;;;;;7.50;6.28;;;;;;;-145.48;100.00;59605.97;6245249;23;20007;-79
2021/01/30 06:34:35;;;;;;;10.75;6.45;;;;;;;-145.48;100.00;59605.97;6217070;23;20075;-78
2021/01/30 06:37:09;;;;;;;7.85;5.95;;;;;;;-145.48;100.00;59605.97;6219396;23;20395;-79
2021/01/30 06:39:39;;;;;;;11.88;6.70;;;;;;;-145.48;100.00;59605.97;6246925;23;20008;-79
2021/01/30 06:42:12;;;;;;;8.68;6.35;;;;;;;-145.48;100.00;59605.97;6250369;23;20030;-79
2021/01/30 06:44:39;;;;;;;8.38;6.05;;;;;;;-145.48;100.00;59605.97;6250034;23;20362;-79
2021/01/30 06:47:14;;;;;;;7.30;5.68;;;;;;;-145.48;100.00;59605.97;6248418;23;20091;-79
2021/01/30 06:49:53;;;;;;;7.30;5.57;;;;;;;-145.48;100.00;59605.97;6218811;23;20505;-79
2021/01/30 06:52:26;;;;;;;11.05;6.47;;;;;;;-145.48;100.00;59605.97;6219198;23;20016;-79
2021/01/30 06:55:04;;;;;;;7.15;5.80;;;;;;;-145.48;100.00;59605.97;6242648;23;20004;-78
2021/01/30 06:57:31;;;;;;;7.13;5.22;;;;;;;-145.48;100.00;59605.97;6216552;23;20055;-79
2021/01/30 07:00:01;;;;;;;9.23;5.90;;;;;;;-145.48;100.00;59605.97;6242154;23;20004;-78
2021/01/30 07:02:35;;;;;;;9.10;6.35;;;;;;;-145.48;100.00;59605.97;6243303;23;20011;-79
2021/01/30 07:05:26;;;;;;;8.18;6.32;;;;;;;-145.48;100.00;59605.97;6243864;23;20382;-79
2021/01/30 07:08:18;;;;;;;10.40;7.15;;;;;;;-145.48;100.00;59605.97;6243053;23;20004;-78
2021/01/30 07:11:01;;;;;;;9.35;6.60;;;;;;;-145.48;100.00;59605.97;6240528;23;20043;-79
2021/01/30 07:13:29;;;;;;;7.80;5.70;;;;;;;-145.48;100.00;59605.97;6238464;23;20004;-78
2021/01/30 07:16:24;;;;;;;8.75;6.05;;;;;;;-145.48;100.00;59605.97;6241096;23;20322;-78
2021/01/30 07:19:01;;;;;;;7.40;6.15;;;;;;;-145.48;100.00;59605.97;6172757;23;20044;-79
2021/01/30 07:21:34;;;;;;;7.85;6.30;;;;;;;-145.48;100.00;59605.97;6239974;23;20047;-79
2021/01/30 07:24:08;;;;;;;8.77;6.22;;;;;;;-145.48;100.00;59605.97;6212271;23;20019;-79
2021/01/30 07:26:44;;;;;;;6.95;5.22;;;;;;;-145.48;100.00;59605.97;6215297;23;20011;-79
2021/01/30 07:29:31;;;;;;;8.25;6.30;;;;;;;-145.48;100.00;59605.97;6212513;23;20004;-79
2021/01/30 07:32:11;;;;;;;6.63;5.45;;;;;;;-145.48;100.00;59605.97;6243027;23;20034;-79
2021/01/30 07:35:08;;;;;;;8.65;6.60;;;;;;;-145.48;100.00;59605.97;6241874;23;20335;-79
2021/01/30 07:37:48;;;;;;;7.55;5.38;;;;;;;-145.48;100.00;59605.97;6216333;23;20068;-80
2021/01/30 07:40:20;;;;;;;7.80;6.07;;;;;;;-145.48;100.00;59605.97;6215263;23;20085;-80
2021/01/30 07:43:02;;;;;;;7.30;5.70;;;;;;;-145.48;100.00;59605.97;6215643;23;20011;-79
2021/01/30 07:45:33;;;;;;;7.68;5.65;;;;;;;-145.48;100.00;59605.97;6214896;23;20012;-79
2021/01/30 07:48:15;;;;;;;8.80;6.15;;;;;;;-145.48;100.00;59605.97;6244018;22;20020;-80
2021/01/30 07:50:55;;;;;;;7.57;5.80;;;;;;;-145.48;100.00;59605.97;6214954;23;20000;-79
2021/01/30 07:53:26;;;;;;;7.75;5.90;;;;;;;-145.48;100.00;59605.97;6241679;23;20038;-80
2021/01/30 07:56:19;;;;;;;8.38;5.97;;;;;;;-145.48;100.00;59605.97;6242138;23;20011;-79
2021/01/30 07:59:11;;;;;;;8.45;5.90;;;;;;;-145.48;100.00;59605.97;6237691;23;20074;-80
2021/01/30 08:02:02;;;;;;;8.10;5.97;;;;;;;-145.48;100.00;59605.97;6238999;23;20004;-79
2021/01/30 08:04:37;;;;;;;6.82;5.35;;;;;;;-145.48;100.00;59605.97;6213113;23;20463;-79
2021/01/30 08:07:32;;;;;;;7.10;5.55;;;;;;;-145.48;100.00;59605.97;6214928;23;20004;-80
2021/01/30 08:10:11;;;;;;;8.20;6.00;;;;;;;-145.48;100.00;59605.97;6240960;23;20011;-79
2021/01/30 08:13:01;;;;;;;6.65;5.07;;;;;;;-145.48;100.00;59605.97;6214286;23;20011;-79
2021/01/30 08:15:45;;;;;;;6.45;5.18;;;;;;;-145.48;100.00;59605.97;6241142;23;20006;-78
2021/01/30 08:18:29;;;;;;;8.05;4.95;;;;;;;-145.48;100.00;59605.97;6240255;23;20337;-78
2021/01/30 08:21:09;;;;;;;6.07;5.20;;;;;;;-145.48;100.00;59605.97;6214390;23;20014;-79
2021/01/30 08:23:50;;;;;;;6.75;5.05;;;;;;;-145.48;100.00;59605.97;6240734;23;20035;-79
2021/01/30 08:26:24;;;;;;;5.68;4.47;;;;;;;-145.48;100.00;59605.97;6242546;23;20091;-79
2021/01/30 08:29:16;;;;;;;8.63;5.70;;;;;;;-145.48;100.00;59605.97;6241582;23;20058;-79
2021/01/30 08:31:52;;;;;;;11.00;5.55;;;;;;;-145.48;100.00;59605.97;6243339;23;20606;-79
2021/01/30 08:34:17;;;;;;;5.53;4.47;;;;;;;-145.48;100.00;59605.97;6243786;23;20075;-79
2021/01/30 08:36:45;;;;;;;6.07;5.10;;;;;;;-145.48;100.00;59605.97;6236625;23;20031;-79
2021/01/30 08:39:25;;;;;;;7.32;4.97;;;;;;;-145.48;100.00;59605.97;6239688;23;20271;-80
2021/01/30 08:42:14;;;;;;;6.85;4.90;;;;;;;-145.48;100.00;59605.97;6240041;23;20004;-78
2021/01/30 08:44:52;;;;;;;5.97;4.55;;;;;;;-145.48;100.00;59605.97;6240198;23;20004;-78
2021/01/30 08:47:25;;;;;;;5.95;4.22;;;;;;;-145.48;100.00;59605.97;6243141;22;20016;-77
2021/01/30 08:49:57;;;;;;;5.72;3.67;;;;;;;-145.48;100.00;59605.97;6243459;23;20003;-80
2021/01/30 08:52:35;;;;;;;6.03;4.10;;;;;;;-145.48;100.00;59605.97;6243081;23;20632;-77
2021/01/30 08:55:32;;;;;;;7.03;5.28;;;;;;;-145.48;100.00;59605.97;6242204;23;20054;-78
2021/01/30 08:57:58;;;;;;;7.45;4.47;;;;;;;-145.48;100.00;59605.97;6241533;23;20004;-79
2021/01/30 09:00:26;;;;;;;5.43;4.00;;;;;;;-145.48;100.00;59605.97;6214520;23;20004;-78
2021/01/30 09:02:54;;;;;;;4.88;3.80;;;;;;;-145.48;100.00;59605.97;6214010;23;20008;-78
2021/01/30 09:05:19;;;;;;;7.38;4.07;;;;;;;-145.48;100.00;59605.97;6217571;23;20008;-78
2021/01/30 09:07:51;;;;;;;4.47;3.80;;;;;;;-145.48;100.00;59605.97;6246085;23;20015;-78
2021/01/30 09:10:22;;;;;;;5.45;3.80;;;;;;;-145.48;100.00;59605.97;6247476;23;20260;-78
2021/01/30 09:13:02;;;;;;;4.68;3.92;;;;;;;-145.48;100.00;59605.97;6241484;23;20003;-78
2021/01/30 09:15:40;;;;;;;5.45;4.22;;;;;;;-145.48;100.00;59605.97;6243298;23;20091;-78
2021/01/30 09:18:36;;;;;;;5.15;4.10;;;;;;;-145.48;100.00;59605.97;6242007;23;20004;-78
2021/01/30 09:21:25;;;;;;;8.25;3.88;;;;;;;-145.48;100.00;59605.97;6243799;23;20011;-79
2021/01/30 09:24:12;;;;;;;6.63;4.20;;;;;;;-145.48;100.00;59605.97;6242686;23;20015;-78
2021/01/30 09:27:12;;;;;;;7.18;4.93;;;;;;;-145.48;100.00;59605.97;6215275;23;20015;-78
2021/01/30 09:29:42;;;;;;;6.22;3.97;;;;;;;-145.48;100.00;59605.97;6214445;23;20004;-78
2021/01/30 09:32:08;;;;;;;5.68;3.85;;;;;;;-145.48;100.00;59605.97;6242341;23;20111;-78
2021/01/30 09:34:51;;;;;;;4.93;3.65;;;;;;;-145.48;100.00;59605.97;6242764;23;20038;-78
2021/01/30 09:37:29;;;;;;;5.70;4.20;;;;;;;-145.48;100.00;59605.97;6241988;23;20027;-78
2021/01/30 09:39:57;;;;;;;6.50;4.97;;;;;;;-145.48;100.00;59605.97;6242319;23;20008;-79
2021/01/30 09:42:23;;;;;;;5.53;4.40;;;;;;;-145.48;100.00;59605.97;6215865;23;20082;-79
2021/01/30 09:45:24;;;;;;;5.63;4.70;;;;;;;-145.48;100.00;59605.97;6242449;23;20015;-79
2021/01/30 09:47:52;;;;;;;6.25;4.82;;;;;;;-145.48;100.00;59605.97;6066999;23;20026;-79
2021/01/30 09:50:22;;;;;;;6.57;4.65;;;;;;;-145.48;100.00;59605.97;6092641;23;20014;-79
2021/01/30 09:52:57;;;;;;;7.13;4.85;;;;;;;-145.48;100.00;59605.97;6090063;23;20014;-79
2021/01/30 09:55:24;;;;;;;5.20;4.43;;;;;;;-145.48;100.00;59605.97;6091832;23;20353;-79
2021/01/30 09:57:51;;;;;;;5.60;4.63;;;;;;;-145.48;100.00;59605.97;6089963;23;20446;-79
2021/01/30 10:00:34;;;;;;;6.13;4.45;;;;;;;-145.48;100.00;59605.97;6066013;23;20006;-79
2021/01/30 10:03:14;;;;;;;8.48;5.38;;;;;;;-145.48;100.00;59605.97;6090298;23;20006;-79
2021/01/30 10:05:40;;;;;;;5.60;4.65;;;;;;;-145.48;100.00;59605.97;6091190;23;20011;-79
2021/01/30 10:08:29;;;;;;;6.50;4.50;;;;;;;-145.48;100.00;59605.97;6092027;23;20099;-78
2021/01/30 10:11:10;;;;;;;6.93;4.80;;;;;;;-145.48;100.00;59605.97;6091360;23;20405;-78
2021/01/30 10:13:39;;;;;;;5.88;4.35;;;;;;;-145.48;100.00;59605.97;6065924;23;20010;-79
2021/01/30 10:16:13;;;;;;;6.35;4.60;;;;;;;-145.48;100.00;59605.97;6090745;23;20049;-79
2021/01/30 10:18:44;;;;;;;6.88;4.90;;;;;;;-145.48;100.00;59605.97;6091791;23;20050;-79
2021/01/30 10:21:10;;;;;;;7.00;5.25;;;;;;;-145.48;100.00;59605.97;6092884;23;20013;-79
2021/01/30 10:23:45;;;;;;;9.95;5.07;;;;;;;-145.48;100.00;59605.97;6161613;23;20005;-78
2021/01/30 10:26:13;;;;;;;4.87;4.10;;;;;;;-145.48;100.00;59605.97;6211905;23;20004;-78
2021/01/30 10:28:45;;;;;;;7.55;5.70;;;;;;;-145.48;100.00;59605.97;6212546;23;20012;-79
2021/01/30 10:31:12;;;;;;;6.90;4.72;;;;;;;-145.48;100.00;59605.97;6186728;23;20031;-78
2021/01/30 10:33:44;;;;;;;8.82;5.38;;;;;;;-145.48;100.00;59605.97;6211391;23;20004;-78
2021/01/30 10:36:10;;;;;;;7.28;5.53;;;;;;;-145.48;100.00;59605.97;6213160;23;20698;-78
2021/01/30 10:38:35;;;;;;;9.45;5.60;;;;;;;-145.48;100.00;59605.97;6187177;23;20009;-78
2021/01/30 10:41:05;;;;;;;6.35;4.97;;;;;;;-145.48;100.00;59605.97;6213757;23;20007;-78
2021/01/30 10:43:39;;;;;;;6.68;5.25;;;;;;;-145.48;100.00;59605.97;6214046;23;20489;-78
2021/01/30 10:46:14;;;;;;;6.72;4.95;;;;;;;-145.48;100.00;59605.97;6185980;23;20104;-79
2021/01/30 10:48:40;;;;;;;6.47;5.03;;;;;;;-145.48;100.00;59605.97;6210024;23;20025;-79
2021/01/30 10:51:07;;;;;;;7.38;5.53;;;;;;;-145.48;100.00;59605.97;6212781;23;20423;-79
2021/01/30 10:53:38;;;;;;;7.30;6.05;;;;;;;-145.48;100.00;59605.97;6211036;23;20004;-78
2021/01/30 10:56:22;;;;;;;10.20;6.20;;;;;;;-145.48;100.00;59605.97;6215209;23;20007;-78
2021/01/30 10:58:49;;;;;;;8.55;6.25;;;;;;;-145.48;100.00;59605.97;6212996;23;20075;-78
2021/01/30 11:01:17;;;;;;;12.20;6.00;;;;;;;-145.48;100.00;59605.97;6214352;23;20000;-78
2021/01/30 11:03:44;;;;;;;8.25;5.65;;;;;;;-145.48;100.00;59605.97;6210605;23;20000;-78
2021/01/30 11:06:22;;;;;;;9.07;6.55;;;;;;;-145.48;100.00;59605.97;6211824;23;20431;-78
2021/01/30 11:08:50;;;;;;;9.57;6.20;;;;;;;-145.48;100.00;59605.97;6212109;23;20012;-78
2021/01/30 11:11:29;;;;;;;9.80;6.35;;;;;;;-145.48;100.00;59605.97;6215437;23;20004;-79
2021/01/30 11:13:56;;;;;;;7.00;5.80;;;;;;;-145.48;100.00;59605.97;6212973;23;20417;-79
2021/01/30 11:16:26;;;;;;;8.88;6.38;;;;;;;-145.48;100.00;59605.97;6216199;23;20004;-79
2021/01/30 11:18:51;;;;;;;10.65;5.75;;;;;;;-145.48;100.00;59605.97;6215943;23;20112;-79
2021/01/30 11:21:37;;;;;;;8.48;6.28;;;;;;;-145.48;100.00;59605.97;6215054;23;20696;-80
2021/01/30 11:24:49;;;;;;;8.83;5.90;;;;;;;-145.48;100.00;59605.97;6213789;23;20075;-79
2021/01/30 11:27:34;;;;;;;7.50;5.82;;;;;;;-145.48;100.00;59605.97;6170479;23;20020;-79
2021/01/30 11:30:30;;;;;;;9.02;6.50;;;;;;;-145.48;100.00;59605.97;6212252;23;20066;-80
2021/01/30 11:33:14;;;;;;;10.18;6.85;;;;;;;-145.48;100.00;59605.97;6211335;23;20046;-80
2021/01/30 11:35:43;;;;;;;8.45;6.80;;;;;;;-145.48;100.00;59605.97;6186451;23;20007;-79